CMA CGM Aristote — MRPN4 — position and weather

sailwx.info

Track history (hours):
 
Tides and Currents Weather Stations Pressure Air Temp Water Temp Dewpoint Dewpoint Depression Visibility Wind Speed Wind Dir Waves Ship Positions

CMA CGM Aristote

Last reported at 2015-May-26 13:32 UTC. Time now 2015-May-26 13:52 UTC.
Position N 49°29' E 000°10'.

Length 170 m; draft 7.9 m.

Type: Ship (hazmat cat A). MMSI: 235054581.

Date/timePositionNaut miles runAvg speedWind from/ knotsBaromVisibWave heightAir tempDewpointWater temp
2015-May-26 13:32N 49°29' E 000°10'0 0.0
2015-May-26 12:32N 49°29' E 000°10'0 0.0
2015-May-26 11:32N 49°29' E 000°10'0 0.0
2015-May-26 10:32N 49°29' E 000°10'0 0.0
2015-May-26 09:32N 49°29' E 000°10'0 0.0
2015-May-26 08:32N 49°29' E 000°10'0 0.0
2015-May-26 07:32N 49°29' E 000°10'0 0.4
2015-May-26 06:33N 49°28' E 000°10'2 1.7
2015-May-26 05:33N 49°29' E 000°07'10 9.7
2015-May-26 04:33N 49°32' W 000°07'1 1.4
2015-May-26 03:33N 49°33' W 000°09'6 6.4
2015-May-26 02:33N 49°28' W 000°02'1111.2
2015-May-26 01:33N 49°26' E 000°15'1010.0
2015-May-26 00:33N 49°29' E 000°29'7 7.0
2015-May-25 23:33N 49°28' E 000°40'6 5.5
2015-May-25 22:33N 49°28' E 000°49'5 3.5
2015-May-25 21:10N 49°28' E 000°56'0 0.0
2015-May-25 03:04N 49°28' E 000°56'4 6.4
2015-May-25 02:24N 49°24' E 000°52'7 7.9
2015-May-25 01:33N 49°30' E 000°46'9 8.6
2015-May-25 00:33N 49°26' E 000°34'1010.5
2015-May-24 23:34N 49°26' E 000°18'1212.1
2015-May-24 22:33N 49°28' W 000°00'7 6.9
2015-May-24 21:33N 49°30' W 000°10'10 9.6
2015-May-24 20:33N 49°39' W 000°17'1 0.6
2015-May-24 19:33N 49°39' W 000°16'1 0.7
2015-May-24 18:33N 49°40' W 000°16'1 0.8
2015-May-24 17:33N 49°41' W 000°15'6 6.4
2015-May-24 16:33N 49°46' W 000°11'1312.1
2015-May-24 15:30N 49°59' W 000°11'1111.3
2015-May-24 14:31N 50°10' W 000°10'1510.5
2015-May-24 13:06N 50°25' W 000°08'17 9.6
2015-May-24 11:20N 50°31' E 000°17'810.8
2015-May-24 10:33N 50°34' E 000°29'1211.7
2015-May-24 09:33N 50°41' E 000°44'1212.2
2015-May-24 08:33N 50°49' E 000°59'1211.9
2015-May-24 07:32N 50°57' E 001°13'1111.1
2015-May-24 06:33N 51°04' E 001°26'9 9.2
2015-May-24 05:34N 51°10' E 001°37'9 8.7
2015-May-24 04:34N 51°19' E 001°38'10 9.8
2015-May-24 03:33N 51°27' E 001°27'1413.9
2015-May-24 02:34N 51°30' E 001°06'1514.8
2015-May-24 01:34N 51°30' E 000°42'1110.8
2015-May-24 00:34N 51°27' E 000°25'3 3.1
2015-May-23 23:32N 51°27' E 000°20'0 0.0
2015-May-23 22:32N 51°27' E 000°20'0 0.0
2015-May-23 21:34N 51°27' E 000°20'0 0.0
2015-May-23 20:34N 51°27' E 000°20'0 0.0
2015-May-23 19:31N 51°27' E 000°20'0 0.0
2015-May-23 18:31N 51°27' E 000°20'0 0.0
2015-May-23 17:34N 51°27' E 000°20'0 0.0
2015-May-23 16:33N 51°27' E 000°20'0 0.0
2015-May-23 15:33N 51°27' E 000°20'0 0.0
2015-May-23 14:33N 51°27' E 000°20'0 0.0
2015-May-23 13:33N 51°27' E 000°20'0 0.0
2015-May-23 12:33N 51°27' E 000°20'0 0.2
2015-May-23 11:33N 51°27' E 000°20'8 8.1
2015-May-23 10:33N 51°30' E 000°32'1313.2
2015-May-23 09:34N 51°29' E 000°53'1615.7
2015-May-23 08:33N 51°36' E 001°17'1616.5
2015-May-23 07:34N 51°48' E 001°35'9 8.5
2015-May-23 06:33N 51°48' E 001°48'1312.8
2015-May-23 05:33N 51°35' E 001°45'5 5.0
2015-May-23 04:33N 51°31' E 001°41'5 5.1
2015-May-23 03:33N 51°33' E 001°49'9 8.6
2015-May-23 02:33N 51°38' E 001°60'1212.3
2015-May-23 01:33N 51°46' E 002°15'1313.1
2015-May-23 00:33N 51°55' E 002°31'1413.1
2015-May-22 23:31N 52°04' E 002°48'1312.9
2015-May-22 22:33N 52°13' E 003°02'8 8.0
2015-May-22 21:33N 52°15' E 003°14'1010.1
2015-May-22 20:33N 52°07' E 003°05'8 8.3
2015-May-22 19:33N 52°03' E 003°18'1110.9
2015-May-22 18:33N 52°04' E 003°35'1313.3
2015-May-22 17:33N 52°02' E 003°57'1110.9
2015-May-22 16:34N 51°56' E 004°12'8 8.4
2015-May-22 15:33N 51°53' E 004°24'0 0.4
2015-May-22 14:31N 51°53' E 004°24'0 0.0
2015-May-22 13:31N 51°53' E 004°24'0 0.0
2015-May-22 12:31N 51°53' E 004°24'0 0.0
2015-May-22 11:31N 51°53' E 004°24'0 0.0
2015-May-22 10:31N 51°53' E 004°24'0 0.0
2015-May-22 09:31N 51°53' E 004°24'0 0.0
2015-May-22 08:31N 51°53' E 004°24'0 0.0
2015-May-22 07:31N 51°53' E 004°24'0 0.0
2015-May-22 06:31N 51°53' E 004°24'0 0.0
2015-May-22 05:31N 51°53' E 004°24'0 0.0
2015-May-22 04:31N 51°53' E 004°24'0 0.0
2015-May-22 03:31N 51°53' E 004°24'0 0.0
2015-May-22 02:31N 51°53' E 004°24'0 0.0
2015-May-22 01:31N 51°53' E 004°24'0 0.0
2015-May-22 00:33N 51°53' E 004°24'6 6.0
2015-May-21 23:33N 51°55' E 004°15'1010.1
2015-May-21 22:34N 51°60' E 004°01'1110.8
2015-May-21 21:33N 51°59' E 003°43'1414.5
2015-May-21 20:34N 51°55' E 003°21'1514.7
2015-May-21 19:33N 51°49' E 002°59'1616.2
2015-May-21 18:34N 51°44' E 002°34'1919.2
2015-May-21 17:34N 51°29' E 002°14'1919.1
2015-May-21 16:33N 51°12' E 001°60'2020.4
2015-May-21 15:34N 50°59' E 001°35'2120.8
2015-May-21 14:34N 50°41' E 001°17'2118.8
2015-May-21 13:25N 50°30' E 000°49'1719.0
2015-May-21 12:32N 50°24' E 000°24'24018.5
2015-May-20 23:33N 48°53' W 005°19'1212.2
2015-May-20 22:33N 48°47' W 005°35'59613.6
2015-May-19 02:33N 39°20' W 009°52'1413.7
2015-May-19 01:33N 39°06' W 009°51'1313.5
2015-May-19 00:33N 38°53' W 009°52'1414.2
2015-May-18 23:33N 38°38' W 009°51'1414.1
2015-May-18 22:33N 38°25' W 009°46'1614.2
2015-May-18 21:27N 38°10' W 009°42'1513.9
2015-May-18 20:24N 37°55' W 009°38'1213.7
2015-May-18 19:33N 37°44' W 009°34'1515.1
2015-May-18 18:33N 37°29' W 009°30'1716.6
2015-May-18 17:32N 37°13' W 009°25'1716.6
2015-May-18 16:33N 36°57' W 009°21'1817.6
2015-May-18 15:33N 36°44' W 009°06'2119.3
2015-May-18 14:27N 36°37' W 008°41'1920.0
2015-May-18 13:30N 36°31' W 008°19'13519.2
2015-May-18 06:30N 35°58' W 005°37'1314.0
2015-May-18 05:33N 36°06' W 005°24'2 1.9
2015-May-18 04:31N 36°08' W 005°25'0 0.0
2015-May-18 03:31N 36°08' W 005°25'0 0.0
2015-May-18 02:31N 36°08' W 005°25'0 0.0
2015-May-18 01:31N 36°08' W 005°25'0 0.0
2015-May-18 00:31N 36°08' W 005°25'0 0.1
2015-May-17 23:33N 36°08' W 005°25'2 1.9
2015-May-17 22:33N 36°07' W 005°24'3 2.8
2015-May-17 21:33N 36°04' W 005°23'40316.6
2015-May-16 21:15N 31°14' W 010°60'1116.2
2015-May-16 20:33N 31°05' W 011°07'8216.5
2015-May-16 15:33N 29°59' W 012°04'  
Track history (hours):
 
Tides and Currents Weather Stations Pressure Air Temp Water Temp Dewpoint Dewpoint Depression Visibility Wind Speed Wind Dir Waves Ship Positions

CMA CGM Aristote

Last reported at 2015-May-26 13:32 UTC. Time now 2015-May-26 13:52 UTC.
Position N 49°29' E 000°10'.

Length 170 m; draft 7.9 m.

Type: Ship (hazmat cat A). MMSI: 235054581.

Date/timePositionNaut miles runAvg speedWind from/ knotsBaromVisibWave heightAir tempDewpointWater temp
2015-May-26 13:32N 49°29' E 000°10'0 0.0
2015-May-26 12:32N 49°29' E 000°10'0 0.0
2015-May-26 11:32N 49°29' E 000°10'0 0.0
2015-May-26 10:32N 49°29' E 000°10'0 0.0
2015-May-26 09:32N 49°29' E 000°10'0 0.0
2015-May-26 08:32N 49°29' E 000°10'0 0.0
2015-May-26 07:32N 49°29' E 000°10'0 0.4
2015-May-26 06:33N 49°28' E 000°10'2 1.7
2015-May-26 05:33N 49°29' E 000°07'10 9.7
2015-May-26 04:33N 49°32' W 000°07'1 1.4
2015-May-26 03:33N 49°33' W 000°09'6 6.4
2015-May-26 02:33N 49°28' W 000°02'1111.2
2015-May-26 01:33N 49°26' E 000°15'1010.0
2015-May-26 00:33N 49°29' E 000°29'7 7.0
2015-May-25 23:33N 49°28' E 000°40'6 5.5
2015-May-25 22:33N 49°28' E 000°49'5 3.5
2015-May-25 21:10N 49°28' E 000°56'0 0.0
2015-May-25 03:04N 49°28' E 000°56'4 6.4
2015-May-25 02:24N 49°24' E 000°52'7 7.9
2015-May-25 01:33N 49°30' E 000°46'9 8.6
2015-May-25 00:33N 49°26' E 000°34'1010.5
2015-May-24 23:34N 49°26' E 000°18'1212.1
2015-May-24 22:33N 49°28' W 000°00'7 6.9
2015-May-24 21:33N 49°30' W 000°10'10 9.6
2015-May-24 20:33N 49°39' W 000°17'1 0.6
2015-May-24 19:33N 49°39' W 000°16'1 0.7
2015-May-24 18:33N 49°40' W 000°16'1 0.8
2015-May-24 17:33N 49°41' W 000°15'6 6.4
2015-May-24 16:33N 49°46' W 000°11'1312.1
2015-May-24 15:30N 49°59' W 000°11'1111.3
2015-May-24 14:31N 50°10' W 000°10'1510.5
2015-May-24 13:06N 50°25' W 000°08'17 9.6
2015-May-24 11:20N 50°31' E 000°17'810.8
2015-May-24 10:33N 50°34' E 000°29'1211.7
2015-May-24 09:33N 50°41' E 000°44'1212.2
2015-May-24 08:33N 50°49' E 000°59'1211.9
2015-May-24 07:32N 50°57' E 001°13'1111.1
2015-May-24 06:33N 51°04' E 001°26'9 9.2
2015-May-24 05:34N 51°10' E 001°37'9 8.7
2015-May-24 04:34N 51°19' E 001°38'10 9.8
2015-May-24 03:33N 51°27' E 001°27'1413.9
2015-May-24 02:34N 51°30' E 001°06'1514.8
2015-May-24 01:34N 51°30' E 000°42'1110.8
2015-May-24 00:34N 51°27' E 000°25'3 3.1
2015-May-23 23:32N 51°27' E 000°20'0 0.0
2015-May-23 22:32N 51°27' E 000°20'0 0.0
2015-May-23 21:34N 51°27' E 000°20'0 0.0
2015-May-23 20:34N 51°27' E 000°20'0 0.0
2015-May-23 19:31N 51°27' E 000°20'0 0.0
2015-May-23 18:31N 51°27' E 000°20'0 0.0
2015-May-23 17:34N 51°27' E 000°20'0 0.0
2015-May-23 16:33N 51°27' E 000°20'0 0.0
2015-May-23 15:33N 51°27' E 000°20'0 0.0
2015-May-23 14:33N 51°27' E 000°20'0 0.0
2015-May-23 13:33N 51°27' E 000°20'0 0.0
2015-May-23 12:33N 51°27' E 000°20'0 0.2
2015-May-23 11:33N 51°27' E 000°20'8 8.1
2015-May-23 10:33N 51°30' E 000°32'1313.2
2015-May-23 09:34N 51°29' E 000°53'1615.7
2015-May-23 08:33N 51°36' E 001°17'1616.5
2015-May-23 07:34N 51°48' E 001°35'9 8.5
2015-May-23 06:33N 51°48' E 001°48'1312.8
2015-May-23 05:33N 51°35' E 001°45'5 5.0
2015-May-23 04:33N 51°31' E 001°41'5 5.1
2015-May-23 03:33N 51°33' E 001°49'9 8.6
2015-May-23 02:33N 51°38' E 001°60'1212.3
2015-May-23 01:33N 51°46' E 002°15'1313.1
2015-May-23 00:33N 51°55' E 002°31'1413.1
2015-May-22 23:31N 52°04' E 002°48'1312.9
2015-May-22 22:33N 52°13' E 003°02'8 8.0
2015-May-22 21:33N 52°15' E 003°14'1010.1
2015-May-22 20:33N 52°07' E 003°05'8 8.3
2015-May-22 19:33N 52°03' E 003°18'1110.9
2015-May-22 18:33N 52°04' E 003°35'1313.3
2015-May-22 17:33N 52°02' E 003°57'1110.9
2015-May-22 16:34N 51°56' E 004°12'8 8.4
2015-May-22 15:33N 51°53' E 004°24'0 0.4
2015-May-22 14:31N 51°53' E 004°24'0 0.0
2015-May-22 13:31N 51°53' E 004°24'0 0.0
2015-May-22 12:31N 51°53' E 004°24'0 0.0
2015-May-22 11:31N 51°53' E 004°24'0 0.0
2015-May-22 10:31N 51°53' E 004°24'0 0.0
2015-May-22 09:31N 51°53' E 004°24'0 0.0
2015-May-22 08:31N 51°53' E 004°24'0 0.0
2015-May-22 07:31N 51°53' E 004°24'0 0.0
2015-May-22 06:31N 51°53' E 004°24'0 0.0
2015-May-22 05:31N 51°53' E 004°24'0 0.0
2015-May-22 04:31N 51°53' E 004°24'0 0.0
2015-May-22 03:31N 51°53' E 004°24'0 0.0
2015-May-22 02:31N 51°53' E 004°24'0 0.0
2015-May-22 01:31N 51°53' E 004°24'0 0.0
2015-May-22 00:33N 51°53' E 004°24'6 6.0
2015-May-21 23:33N 51°55' E 004°15'1010.1
2015-May-21 22:34N 51°60' E 004°01'1110.8
2015-May-21 21:33N 51°59' E 003°43'1414.5
2015-May-21 20:34N 51°55' E 003°21'1514.7
2015-May-21 19:33N 51°49' E 002°59'1616.2
2015-May-21 18:34N 51°44' E 002°34'1919.2
2015-May-21 17:34N 51°29' E 002°14'1919.1
2015-May-21 16:33N 51°12' E 001°60'2020.4
2015-May-21 15:34N 50°59' E 001°35'2120.8
2015-May-21 14:34N 50°41' E 001°17'2118.8
2015-May-21 13:25N 50°30' E 000°49'1719.0
2015-May-21 12:32N 50°24' E 000°24'24018.5
2015-May-20 23:33N 48°53' W 005°19'1212.2
2015-May-20 22:33N 48°47' W 005°35'59613.6
2015-May-19 02:33N 39°20' W 009°52'1413.7
2015-May-19 01:33N 39°06' W 009°51'1313.5
2015-May-19 00:33N 38°53' W 009°52'1414.2
2015-May-18 23:33N 38°38' W 009°51'1414.1
2015-May-18 22:33N 38°25' W 009°46'1614.2
2015-May-18 21:27N 38°10' W 009°42'1513.9
2015-May-18 20:24N 37°55' W 009°38'1213.7
2015-May-18 19:33N 37°44' W 009°34'1515.1
2015-May-18 18:33N 37°29' W 009°30'1716.6
2015-May-18 17:32N 37°13' W 009°25'1716.6
2015-May-18 16:33N 36°57' W 009°21'1817.6
2015-May-18 15:33N 36°44' W 009°06'2119.3
2015-May-18 14:27N 36°37' W 008°41'1920.0
2015-May-18 13:30N 36°31' W 008°19'13519.2
2015-May-18 06:30N 35°58' W 005°37'1314.0
2015-May-18 05:33N 36°06' W 005°24'2 1.9
2015-May-18 04:31N 36°08' W 005°25'0 0.0
2015-May-18 03:31N 36°08' W 005°25'0 0.0
2015-May-18 02:31N 36°08' W 005°25'0 0.0
2015-May-18 01:31N 36°08' W 005°25'0 0.0
2015-May-18 00:31N 36°08' W 005°25'0 0.1
2015-May-17 23:33N 36°08' W 005°25'2 1.9
2015-May-17 22:33N 36°07' W 005°24'3 2.8
2015-May-17 21:33N 36°04' W 005°23'40316.6
2015-May-16 21:15N 31°14' W 010°60'1116.2
2015-May-16 20:33N 31°05' W 011°07'8216.5
2015-May-16 15:33N 29°59' W 012°04'  

Dump ship's entire track history